sensor_id;sensor_type;location;lat;lon;timestamp;temperature;humidity
9640;DHT22;51745;50.872;4.732;2022-07-04T00:00:28;13.60;99.90
9640;DHT22;51745;50.872;4.732;2022-07-04T00:03:16;13.60;99.90
9640;DHT22;51745;50.872;4.732;2022-07-04T00:06:05;13.60;99.90
9640;DHT22;51745;50.872;4.732;2022-07-04T00:08:53;13.40;99.90
9640;DHT22;51745;50.872;4.732;2022-07-04T00:11:40;13.50;99.90
9640;DHT22;51745;50.872;4.732;2022-07-04T00:14:28;13.50;99.90
9640;DHT22;51745;50.872;4.732;2022-07-04T00:17:16;14.00;99.90
9640;DHT22;51745;50.872;4.732;2022-07-04T00:20:05;14.50;99.90
9640;DHT22;51745;50.872;4.732;2022-07-04T00:22:57;13.50;99.90
9640;DHT22;51745;50.872;4.732;2022-07-04T00:25:45;13.50;99.90
9640;DHT22;51745;50.872;4.732;2022-07-04T00:28:33;13.50;99.90
9640;DHT22;51745;50.872;4.732;2022-07-04T00:31:20;12.00;99.90
9640;DHT22;51745;50.872;4.732;2022-07-04T00:34:08;13.40;99.90
9640;DHT22;51745;50.872;4.732;2022-07-04T00:36:56;13.40;99.90
9640;DHT22;51745;50.872;4.732;2022-07-04T00:39:45;13.40;99.90
9640;DHT22;51745;50.872;4.732;2022-07-04T00:42:33;13.30;99.90
9640;DHT22;51745;50.872;4.732;2022-07-04T00:45:21;13.30;99.90
9640;DHT22;51745;50.872;4.732;2022-07-04T00:48:08;13.30;99.90
9640;DHT22;51745;50.872;4.732;2022-07-04T00:50:56;13.20;99.90
9640;DHT22;51745;50.872;4.732;2022-07-04T00:53:43;13.20;99.90
9640;DHT22;51745;50.872;4.732;2022-07-04T00:56:33;13.20;99.90
9640;DHT22;51745;50.872;4.732;2022-07-04T00:59:25;13.10;99.90
9640;DHT22;51745;50.872;4.732;2022-07-04T01:02:13;13.10;99.90
9640;DHT22;51745;50.872;4.732;2022-07-04T01:05:00;13.10;99.90
9640;DHT22;51745;50.872;4.732;2022-07-04T01:07:49;13.00;99.90
9640;DHT22;51745;50.872;4.732;2022-07-04T01:10:37;12.80;99.90
9640;DHT22;51745;50.872;4.732;2022-07-04T01:13:26;12.90;99.90
9640;DHT22;51745;50.872;4.732;2022-07-04T01:16:15;12.90;99.90
9640;DHT22;51745;50.872;4.732;2022-07-04T01:19:03;12.80;99.90
9640;DHT22;51745;50.872;4.732;2022-07-04T01:21:53;12.70;99.90
9640;DHT22;51745;50.872;4.732;2022-07-04T01:24:40;12.70;99.90
9640;DHT22;51745;50.872;4.732;2022-07-04T01:27:27;12.60;99.90
9640;DHT22;51745;50.872;4.732;2022-07-04T01:30:15;12.90;99.90
9640;DHT22;51745;50.872;4.732;2022-07-04T01:33:02;12.50;99.90
9640;DHT22;51745;50.872;4.732;2022-07-04T01:35:50;12.50;99.90
9640;DHT22;51745;50.872;4.732;2022-07-04T01:38:38;12.40;99.90
9640;DHT22;51745;50.872;4.732;2022-07-04T01:41:25;12.50;99.90
9640;DHT22;51745;50.872;4.732;2022-07-04T01:44:13;12.40;99.90
9640;DHT22;51745;50.872;4.732;2022-07-04T01:47:01;12.40;99.90
9640;DHT22;51745;50.872;4.732;2022-07-04T01:49:49;12.50;99.90
9640;DHT22;51745;50.872;4.732;2022-07-04T01:52:36;12.30;99.90
9640;DHT22;51745;50.872;4.732;2022-07-04T01:55:25;12.20;99.90
9640;DHT22;51745;50.872;4.732;2022-07-04T01:58:13;12.20;99.90
9640;DHT22;51745;50.872;4.732;2022-07-04T02:01:01;12.20;99.90
9640;DHT22;51745;50.872;4.732;2022-07-04T02:04:06;12.20;99.90
9640;DHT22;51745;50.872;4.732;2022-07-04T02:06:54;12.00;99.90
9640;DHT22;51745;50.872;4.732;2022-07-04T02:09:41;12.20;99.90
9640;DHT22;51745;50.872;4.732;2022-07-04T02:12:30;12.20;99.90
9640;DHT22;51745;50.872;4.732;2022-07-04T02:15:36;12.10;99.90
9640;DHT22;51745;50.872;4.732;2022-07-04T02:18:24;12.00;99.90
9640;DHT22;51745;50.872;4.732;2022-07-04T02:21:13;12.20;99.90
9640;DHT22;51745;50.872;4.732;2022-07-04T02:24:04;11.90;99.90
9640;DHT22;51745;50.872;4.732;2022-07-04T02:26:52;12.00;99.90
9640;DHT22;51745;50.872;4.732;2022-07-04T02:29:42;11.90;99.90
9640;DHT22;51745;50.872;4.732;2022-07-04T02:32:30;11.90;99.90
9640;DHT22;51745;50.872;4.732;2022-07-04T02:35:17;11.90;99.90
9640;DHT22;51745;50.872;4.732;2022-07-04T02:38:05;10.80;99.90
9640;DHT22;51745;50.872;4.732;2022-07-04T02:40:52;11.80;99.90
9640;DHT22;51745;50.872;4.732;2022-07-04T02:43:40;11.80;99.90
9640;DHT22;51745;50.872;4.732;2022-07-04T02:46:30;11.80;99.90
9640;DHT22;51745;50.872;4.732;2022-07-04T02:49:19;11.80;99.90
9640;DHT22;51745;50.872;4.732;2022-07-04T02:52:06;11.80;99.90
9640;DHT22;51745;50.872;4.732;2022-07-04T02:54:54;11.70;99.90
9640;DHT22;51745;50.872;4.732;2022-07-04T02:57:42;11.70;99.90
9640;DHT22;51745;50.872;4.732;2022-07-04T03:00:30;11.70;99.90
9640;DHT22;51745;50.872;4.732;2022-07-04T03:03:19;11.60;99.90
9640;DHT22;51745;50.872;4.732;2022-07-04T03:06:07;11.70;99.90
9640;DHT22;51745;50.872;4.732;2022-07-04T03:08:56;11.70;99.90
9640;DHT22;51745;50.872;4.732;2022-07-04T03:11:44;11.70;99.90
9640;DHT22;51745;50.872;4.732;2022-07-04T03:14:34;11.70;99.90
9640;DHT22;51745;50.872;4.732;2022-07-04T03:17:22;11.70;99.90
9640;DHT22;51745;50.872;4.732;2022-07-04T03:20:11;11.70;99.90
9640;DHT22;51745;50.872;4.732;2022-07-04T03:22:59;11.70;99.90
9640;DHT22;51745;50.872;4.732;2022-07-04T03:25:46;11.70;99.90
9640;DHT22;51745;50.872;4.732;2022-07-04T03:28:34;11.70;99.90
9640;DHT22;51745;50.872;4.732;2022-07-04T03:31:22;11.70;99.90
9640;DHT22;51745;50.872;4.732;2022-07-04T03:34:10;11.70;99.90
9640;DHT22;51745;50.872;4.732;2022-07-04T03:36:59;11.60;99.90
9640;DHT22;51745;50.872;4.732;2022-07-04T03:39:47;11.60;99.90
9640;DHT22;51745;50.872;4.732;2022-07-04T03:42:36;11.60;99.90
9640;DHT22;51745;50.872;4.732;2022-07-04T03:45:23;11.60;99.90
9640;DHT22;51745;50.872;4.732;2022-07-04T03:48:11;11.60;99.90
9640;DHT22;51745;50.872;4.732;2022-07-04T03:50:59;11.60;99.90
9640;DHT22;51745;50.872;4.732;2022-07-04T03:53:48;12.00;99.90
9640;DHT22;51745;50.872;4.732;2022-07-04T03:56:36;11.60;99.90
9640;DHT22;51745;50.872;4.732;2022-07-04T03:59:23;12.00;99.90
9640;DHT22;51745;50.872;4.732;2022-07-04T04:02:11;11.60;99.90
9640;DHT22;51745;50.872;4.732;2022-07-04T04:05:00;11.60;99.90
9640;DHT22;51745;50.872;4.732;2022-07-04T04:08:05;11.60;99.90
9640;DHT22;51745;50.872;4.732;2022-07-04T04:10:54;11.60;99.90
9640;DHT22;51745;50.872;4.732;2022-07-04T04:13:41;11.70;99.90
9640;DHT22;51745;50.872;4.732;2022-07-04T04:16:29;11.70;99.90
9640;DHT22;51745;50.872;4.732;2022-07-04T04:19:17;11.70;99.90
9640;DHT22;51745;50.872;4.732;2022-07-04T04:22:04;11.90;99.90
9640;DHT22;51745;50.872;4.732;2022-07-04T04:24:52;12.20;99.90
9640;DHT22;51745;50.872;4.732;2022-07-04T04:27:41;12.50;99.90
9640;DHT22;51745;50.872;4.732;2022-07-04T04:30:29;12.70;99.90
9640;DHT22;51745;50.872;4.732;2022-07-04T04:33:16;12.60;99.90
9640;DHT22;51745;50.872;4.732;2022-07-04T04:36:04;12.60;99.90
9640;DHT22;51745;50.872;4.732;2022-07-04T04:38:52;12.50;99.90
9640;DHT22;51745;50.872;4.732;2022-07-04T04:41:41;12.40;99.90
9640;DHT22;51745;50.872;4.732;2022-07-04T04:44:30;12.40;99.90
9640;DHT22;51745;50.872;4.732;2022-07-04T04:47:17;12.40;99.90
9640;DHT22;51745;50.872;4.732;2022-07-04T04:50:06;12.40;99.90
9640;DHT22;51745;50.872;4.732;2022-07-04T04:52:56;12.50;99.90
9640;DHT22;51745;50.872;4.732;2022-07-04T04:55:46;12.50;99.90
9640;DHT22;51745;50.872;4.732;2022-07-04T04:58:34;12.50;99.90
9640;DHT22;51745;50.872;4.732;2022-07-04T05:01:25;12.50;99.90
9640;DHT22;51745;50.872;4.732;2022-07-04T05:04:27;13.40;99.90
9640;DHT22;51745;50.872;4.732;2022-07-04T05:07:15;12.50;99.90
9640;DHT22;51745;50.872;4.732;2022-07-04T05:10:03;12.50;99.90
9640;DHT22;51745;50.872;4.732;2022-07-04T05:12:54;12.60;99.90
9640;DHT22;51745;50.872;4.732;2022-07-04T05:15:42;12.70;99.90
9640;DHT22;51745;50.872;4.732;2022-07-04T05:18:31;12.90;99.90
9640;DHT22;51745;50.872;4.732;2022-07-04T05:21:19;13.00;99.90
9640;DHT22;51745;50.872;4.732;2022-07-04T05:24:06;13.10;99.90
9640;DHT22;51745;50.872;4.732;2022-07-04T05:26:54;13.10;99.90
9640;DHT22;51745;50.872;4.732;2022-07-04T05:29:44;13.20;99.90
9640;DHT22;51745;50.872;4.732;2022-07-04T05:32:34;12.70;99.90
9640;DHT22;51745;50.872;4.732;2022-07-04T05:35:23;13.20;99.90
9640;DHT22;51745;50.872;4.732;2022-07-04T05:38:10;13.30;99.90
9640;DHT22;51745;50.872;4.732;2022-07-04T05:40:58;13.30;99.90
9640;DHT22;51745;50.872;4.732;2022-07-04T05:43:45;14.40;99.90
9640;DHT22;51745;50.872;4.732;2022-07-04T05:46:33;13.40;99.90
9640;DHT22;51745;50.872;4.732;2022-07-04T05:49:21;13.60;99.90
9640;DHT22;51745;50.872;4.732;2022-07-04T05:52:10;13.70;99.90
9640;DHT22;51745;50.872;4.732;2022-07-04T05:54:58;14.30;99.90
9640;DHT22;51745;50.872;4.732;2022-07-04T05:57:46;13.90;99.90
9640;DHT22;51745;50.872;4.732;2022-07-04T06:00:34;13.90;99.90
9640;DHT22;51745;50.872;4.732;2022-07-04T06:03:22;13.90;99.90
9640;DHT22;51745;50.872;4.732;2022-07-04T06:06:09;13.90;99.90
9640;DHT22;51745;50.872;4.732;2022-07-04T06:08:58;14.00;99.90
9640;DHT22;51745;50.872;4.732;2022-07-04T06:11:46;12.60;99.90
9640;DHT22;51745;50.872;4.732;2022-07-04T06:14:33;14.10;99.90
9640;DHT22;51745;50.872;4.732;2022-07-04T06:17:21;14.30;99.90
9640;DHT22;51745;50.872;4.732;2022-07-04T06:20:09;14.20;99.90
9640;DHT22;51745;50.872;4.732;2022-07-04T06:22:57;14.30;99.90
9640;DHT22;51745;50.872;4.732;2022-07-04T06:25:46;14.30;99.90
9640;DHT22;51745;50.872;4.732;2022-07-04T06:28:33;14.50;99.90
9640;DHT22;51745;50.872;4.732;2022-07-04T06:31:32;14.60;99.90
9640;DHT22;51745;50.872;4.732;2022-07-04T06:34:20;14.70;99.90
9640;DHT22;51745;50.872;4.732;2022-07-04T06:37:26;14.80;99.90
9640;DHT22;51745;50.872;4.732;2022-07-04T06:40:13;14.90;99.90
9640;DHT22;51745;50.872;4.732;2022-07-04T06:43:04;14.90;99.90
9640;DHT22;51745;50.872;4.732;2022-07-04T06:45:52;15.10;99.90
9640;DHT22;51745;50.872;4.732;2022-07-04T06:48:40;15.20;99.90
9640;DHT22;51745;50.872;4.732;2022-07-04T06:51:27;15.20;99.90
9640;DHT22;51745;50.872;4.732;2022-07-04T06:54:16;15.20;99.90
9640;DHT22;51745;50.872;4.732;2022-07-04T06:57:05;15.30;99.90
9640;DHT22;51745;50.872;4.732;2022-07-04T07:00:18;15.40;99.90
9640;DHT22;51745;50.872;4.732;2022-07-04T07:03:05;15.60;99.90
9640;DHT22;51745;50.872;4.732;2022-07-04T07:05:53;15.60;99.90
9640;DHT22;51745;50.872;4.732;2022-07-04T07:08:46;16.60;99.90
9640;DHT22;51745;50.872;4.732;2022-07-04T07:11:33;15.90;99.90
9640;DHT22;51745;50.872;4.732;2022-07-04T07:14:25;16.00;99.90
9640;DHT22;51745;50.872;4.732;2022-07-04T07:17:15;16.10;99.90
9640;DHT22;51745;50.872;4.732;2022-07-04T07:20:03;16.20;99.90
9640;DHT22;51745;50.872;4.732;2022-07-04T07:22:51;17.30;99.90
9640;DHT22;51745;50.872;4.732;2022-07-04T07:25:39;16.50;99.90
9640;DHT22;51745;50.872;4.732;2022-07-04T07:28:27;16.60;99.90
9640;DHT22;51745;50.872;4.732;2022-07-04T07:31:14;16.70;99.90
9640;DHT22;51745;50.872;4.732;2022-07-04T07:34:05;16.80;99.90
9640;DHT22;51745;50.872;4.732;2022-07-04T07:36:53;16.90;99.90
9640;DHT22;51745;50.872;4.732;2022-07-04T07:39:41;15.80;99.90
9640;DHT22;51745;50.872;4.732;2022-07-04T07:42:30;17.30;99.90
9640;DHT22;51745;50.872;4.732;2022-07-04T07:45:17;18.40;99.90
9640;DHT22;51745;50.872;4.732;2022-07-04T07:48:05;17.50;99.90
9640;DHT22;51745;50.872;4.732;2022-07-04T07:50:55;17.60;99.90
9640;DHT22;51745;50.872;4.732;2022-07-04T07:53:43;17.80;99.90
9640;DHT22;51745;50.872;4.732;2022-07-04T07:56:51;17.90;99.90
9640;DHT22;51745;50.872;4.732;2022-07-04T07:59:38;18.00;99.90
9640;DHT22;51745;50.872;4.732;2022-07-04T08:02:26;18.10;99.90
9640;DHT22;51745;50.872;4.732;2022-07-04T08:05:28;18.10;99.90
9640;DHT22;51745;50.872;4.732;2022-07-04T08:08:17;18.20;99.90
9640;DHT22;51745;50.872;4.732;2022-07-04T08:11:08;18.20;99.90
9640;DHT22;51745;50.872;4.732;2022-07-04T08:13:56;18.40;99.90
9640;DHT22;51745;50.872;4.732;2022-07-04T08:16:46;18.50;99.90
9640;DHT22;51745;50.872;4.732;2022-07-04T08:19:41;18.50;99.90
9640;DHT22;51745;50.872;4.732;2022-07-04T08:22:29;18.50;99.90
9640;DHT22;51745;50.872;4.732;2022-07-04T08:25:27;19.00;99.90
9640;DHT22;51745;50.872;4.732;2022-07-04T08:28:24;18.70;99.90
9640;DHT22;51745;50.872;4.732;2022-07-04T08:31:11;18.90;99.90
9640;DHT22;51745;50.872;4.732;2022-07-04T08:34:23;19.00;99.90
9640;DHT22;51745;50.872;4.732;2022-07-04T08:37:11;19.10;99.90
9640;DHT22;51745;50.872;4.732;2022-07-04T08:39:58;19.30;99.90
9640;DHT22;51745;50.872;4.732;2022-07-04T08:42:50;19.30;99.90
9640;DHT22;51745;50.872;4.732;2022-07-04T08:45:38;19.30;99.90
9640;DHT22;51745;50.872;4.732;2022-07-04T08:48:50;19.40;99.90
9640;DHT22;51745;50.872;4.732;2022-07-04T08:51:41;19.50;99.90
9640;DHT22;51745;50.872;4.732;2022-07-04T08:54:32;19.70;99.90
9640;DHT22;51745;50.872;4.732;2022-07-04T08:57:37;19.90;99.90
9640;DHT22;51745;50.872;4.732;2022-07-04T09:00:44;20.00;99.90
9640;DHT22;51745;50.872;4.732;2022-07-04T09:03:33;19.70;99.90
9640;DHT22;51745;50.872;4.732;2022-07-04T09:06:21;20.20;99.90
9640;DHT22;51745;50.872;4.732;2022-07-04T09:09:09;20.10;99.90
9640;DHT22;51745;50.872;4.732;2022-07-04T09:11:57;20.20;99.90
9640;DHT22;51745;50.872;4.732;2022-07-04T09:14:47;20.20;99.90
9640;DHT22;51745;50.872;4.732;2022-07-04T09:17:36;20.20;99.90
9640;DHT22;51745;50.872;4.732;2022-07-04T09:20:24;20.20;99.90
9640;DHT22;51745;50.872;4.732;2022-07-04T09:23:16;20.20;99.90
9640;DHT22;51745;50.872;4.732;2022-07-04T09:26:08;20.00;99.90
9640;DHT22;51745;50.872;4.732;2022-07-04T09:28:57;19.00;99.90
9640;DHT22;51745;50.872;4.732;2022-07-04T09:31:45;20.20;99.90
9640;DHT22;51745;50.872;4.732;2022-07-04T09:34:40;20.30;99.90
9640;DHT22;51745;50.872;4.732;2022-07-04T09:37:39;20.50;99.90
9640;DHT22;51745;50.872;4.732;2022-07-04T09:40:31;20.70;99.90
9640;DHT22;51745;50.872;4.732;2022-07-04T09:43:20;20.70;99.90
9640;DHT22;51745;50.872;4.732;2022-07-04T09:46:13;20.90;99.90
9640;DHT22;51745;50.872;4.732;2022-07-04T09:49:09;21.10;99.90
9640;DHT22;51745;50.872;4.732;2022-07-04T09:51:58;21.10;99.90
9640;DHT22;51745;50.872;4.732;2022-07-04T09:54:47;21.10;99.90
9640;DHT22;51745;50.872;4.732;2022-07-04T09:57:35;21.10;99.90
9640;DHT22;51745;50.872;4.732;2022-07-04T10:00:24;21.40;99.90
9640;DHT22;51745;50.872;4.732;2022-07-04T10:03:16;21.60;99.90
9640;DHT22;51745;50.872;4.732;2022-07-04T10:06:06;21.80;99.90
9640;DHT22;51745;50.872;4.732;2022-07-04T10:09:05;22.10;99.90
9640;DHT22;51745;50.872;4.732;2022-07-04T10:11:56;22.30;99.90
9640;DHT22;51745;50.872;4.732;2022-07-04T10:14:44;22.60;99.90
9640;DHT22;51745;50.872;4.732;2022-07-04T10:17:31;22.80;99.90
9640;DHT22;51745;50.872;4.732;2022-07-04T10:20:20;22.80;99.90
9640;DHT22;51745;50.872;4.732;2022-07-04T10:23:10;22.80;99.90
9640;DHT22;51745;50.872;4.732;2022-07-04T10:26:05;23.40;99.90
9640;DHT22;51745;50.872;4.732;2022-07-04T10:29:02;22.90;99.90
9640;DHT22;51745;50.872;4.732;2022-07-04T10:31:50;23.00;99.90
9640;DHT22;51745;50.872;4.732;2022-07-04T10:34:41;23.10;99.90
9640;DHT22;51745;50.872;4.732;2022-07-04T10:40:40;23.20;99.90
9640;DHT22;51745;50.872;4.732;2022-07-04T10:46:55;23.90;99.90
9640;DHT22;51745;50.872;4.732;2022-07-04T10:49:49;23.80;99.90
9640;DHT22;51745;50.872;4.732;2022-07-04T10:52:40;23.60;99.90
9640;DHT22;51745;50.872;4.732;2022-07-04T10:55:28;23.60;99.90
9640;DHT22;51745;50.872;4.732;2022-07-04T10:58:27;23.70;99.90
9640;DHT22;51745;50.872;4.732;2022-07-04T11:01:25;23.20;99.90
9640;DHT22;51745;50.872;4.732;2022-07-04T11:04:14;22.90;99.90
9640;DHT22;51745;50.872;4.732;2022-07-04T11:07:22;22.70;99.90
9640;DHT22;51745;50.872;4.732;2022-07-04T11:10:20;22.60;99.90
9640;DHT22;51745;50.872;4.732;2022-07-04T11:13:16;22.90;99.90
9640;DHT22;51745;50.872;4.732;2022-07-04T11:16:05;23.40;99.90
9640;DHT22;51745;50.872;4.732;2022-07-04T11:18:55;23.90;99.90
9640;DHT22;51745;50.872;4.732;2022-07-04T11:21:47;24.20;99.90
9640;DHT22;51745;50.872;4.732;2022-07-04T11:24:35;24.30;99.90
9640;DHT22;51745;50.872;4.732;2022-07-04T11:27:24;24.10;99.90
9640;DHT22;51745;50.872;4.732;2022-07-04T11:30:12;23.90;99.90
9640;DHT22;51745;50.872;4.732;2022-07-04T11:33:01;24.00;99.90
9640;DHT22;51745;50.872;4.732;2022-07-04T11:36:02;24.30;99.90
9640;DHT22;51745;50.872;4.732;2022-07-04T11:38:55;25.10;99.90
9640;DHT22;51745;50.872;4.732;2022-07-04T11:41:43;24.70;99.90
9640;DHT22;51745;50.872;4.732;2022-07-04T11:44:49;24.20;99.90
9640;DHT22;51745;50.872;4.732;2022-07-04T11:47:53;23.60;99.90
9640;DHT22;51745;50.872;4.732;2022-07-04T11:50:40;21.80;99.90
9640;DHT22;51745;50.872;4.732;2022-07-04T11:53:30;22.80;99.90
9640;DHT22;51745;50.872;4.732;2022-07-04T11:56:19;22.50;99.90
9640;DHT22;51745;50.872;4.732;2022-07-04T11:59:09;22.30;99.90
9640;DHT22;51745;50.872;4.732;2022-07-04T12:01:56;22.50;99.90
9640;DHT22;51745;50.872;4.732;2022-07-04T12:04:57;22.50;99.90
9640;DHT22;51745;50.872;4.732;2022-07-04T12:07:45;22.50;99.90
9640;DHT22;51745;50.872;4.732;2022-07-04T12:10:54;22.90;99.90
9640;DHT22;51745;50.872;4.732;2022-07-04T12:13:44;23.50;99.90
9640;DHT22;51745;50.872;4.732;2022-07-04T12:16:33;23.50;99.90
9640;DHT22;51745;50.872;4.732;2022-07-04T12:19:21;23.10;99.90
9640;DHT22;51745;50.872;4.732;2022-07-04T12:22:08;22.70;99.90
9640;DHT22;51745;50.872;4.732;2022-07-04T12:24:56;22.50;99.90
9640;DHT22;51745;50.872;4.732;2022-07-04T12:27:50;23.00;99.90
9640;DHT22;51745;50.872;4.732;2022-07-04T12:30:47;23.10;99.90
9640;DHT22;51745;50.872;4.732;2022-07-04T12:33:37;23.30;99.90
9640;DHT22;51745;50.872;4.732;2022-07-04T12:36:25;23.70;99.90
9640;DHT22;51745;50.872;4.732;2022-07-04T12:39:27;24.20;99.90
9640;DHT22;51745;50.872;4.732;2022-07-04T12:42:16;24.10;99.90
9640;DHT22;51745;50.872;4.732;2022-07-04T12:45:08;24.30;99.90
9640;DHT22;51745;50.872;4.732;2022-07-04T12:47:57;24.60;99.90
9640;DHT22;51745;50.872;4.732;2022-07-04T12:50:45;24.80;99.90
9640;DHT22;51745;50.872;4.732;2022-07-04T12:53:35;24.50;99.90
9640;DHT22;51745;50.872;4.732;2022-07-04T12:56:27;24.20;99.90
9640;DHT22;51745;50.872;4.732;2022-07-04T12:59:15;24.10;99.90
9640;DHT22;51745;50.872;4.732;2022-07-04T13:02:04;23.90;99.90
9640;DHT22;51745;50.872;4.732;2022-07-04T13:05:01;23.80;99.90
9640;DHT22;51745;50.872;4.732;2022-07-04T13:07:56;23.70;99.90
9640;DHT22;51745;50.872;4.732;2022-07-04T13:10:46;23.60;99.90
9640;DHT22;51745;50.872;4.732;2022-07-04T13:13:34;23.60;99.90
9640;DHT22;51745;50.872;4.732;2022-07-04T13:16:22;23.50;99.90
9640;DHT22;51745;50.872;4.732;2022-07-04T13:19:10;23.70;99.90
9640;DHT22;51745;50.872;4.732;2022-07-04T13:22:01;24.30;99.90
9640;DHT22;51745;50.872;4.732;2022-07-04T13:24:49;24.80;99.90
9640;DHT22;51745;50.872;4.732;2022-07-04T13:27:37;24.80;99.90
9640;DHT22;51745;50.872;4.732;2022-07-04T13:30:26;24.80;99.90
9640;DHT22;51745;50.872;4.732;2022-07-04T13:33:16;24.90;99.90
9640;DHT22;51745;50.872;4.732;2022-07-04T13:36:04;25.00;99.90
9640;DHT22;51745;50.872;4.732;2022-07-04T13:38:53;25.90;99.90
9640;DHT22;51745;50.872;4.732;2022-07-04T13:41:50;24.70;99.90
9640;DHT22;51745;50.872;4.732;2022-07-04T13:44:41;25.20;99.90
9640;DHT22;51745;50.872;4.732;2022-07-04T13:47:29;25.40;99.90
9640;DHT22;51745;50.872;4.732;2022-07-04T13:50:20;25.70;99.90
9640;DHT22;51745;50.872;4.732;2022-07-04T13:53:10;25.80;99.90
9640;DHT22;51745;50.872;4.732;2022-07-04T13:56:00;26.00;99.90
9640;DHT22;51745;50.872;4.732;2022-07-04T13:58:48;26.00;99.90
9640;DHT22;51745;50.872;4.732;2022-07-04T14:01:36;26.40;99.90
9640;DHT22;51745;50.872;4.732;2022-07-04T14:04:24;25.10;99.90
9640;DHT22;51745;50.872;4.732;2022-07-04T14:07:11;25.10;99.00
9640;DHT22;51745;50.872;4.732;2022-07-04T14:10:05;25.10;99.30
9640;DHT22;51745;50.872;4.732;2022-07-04T14:12:54;24.90;99.90
9640;DHT22;51745;50.872;4.732;2022-07-04T14:15:42;24.60;99.90
9640;DHT22;51745;50.872;4.732;2022-07-04T14:18:30;24.70;99.90
9640;DHT22;51745;50.872;4.732;2022-07-04T14:21:21;25.00;99.90
9640;DHT22;51745;50.872;4.732;2022-07-04T14:24:09;25.20;99.90
9640;DHT22;51745;50.872;4.732;2022-07-04T14:26:57;25.60;99.10
9640;DHT22;51745;50.872;4.732;2022-07-04T14:29:46;25.90;99.90
9640;DHT22;51745;50.872;4.732;2022-07-04T14:32:33;26.00;99.90
9640;DHT22;51745;50.872;4.732;2022-07-04T14:35:21;26.00;99.90
9640;DHT22;51745;50.872;4.732;2022-07-04T14:38:09;26.00;99.90
9640;DHT22;51745;50.872;4.732;2022-07-04T14:40:57;25.90;99.90
9640;DHT22;51745;50.872;4.732;2022-07-04T14:43:56;25.80;97.80
9640;DHT22;51745;50.872;4.732;2022-07-04T14:46:48;25.60;97.00
9640;DHT22;51745;50.872;4.732;2022-07-04T14:49:36;26.90;98.60
9640;DHT22;51745;50.872;4.732;2022-07-04T14:52:23;25.80;97.60
9640;DHT22;51745;50.872;4.732;2022-07-04T14:55:11;26.00;95.10
9640;DHT22;51745;50.872;4.732;2022-07-04T14:57:58;26.10;98.20
9640;DHT22;51745;50.872;4.732;2022-07-04T15:00:46;26.30;98.40
9640;DHT22;51745;50.872;4.732;2022-07-04T15:03:35;26.20;94.90
9640;DHT22;51745;50.872;4.732;2022-07-04T15:06:23;25.90;96.40
9640;DHT22;51745;50.872;4.732;2022-07-04T15:09:11;25.80;98.70
9640;DHT22;51745;50.872;4.732;2022-07-04T15:12:01;25.90;97.70
9640;DHT22;51745;50.872;4.732;2022-07-04T15:14:48;25.60;95.30
9640;DHT22;51745;50.872;4.732;2022-07-04T15:17:36;25.20;96.40
9640;DHT22;51745;50.872;4.732;2022-07-04T15:20:28;24.80;97.20
9640;DHT22;51745;50.872;4.732;2022-07-04T15:23:34;24.60;97.50
9640;DHT22;51745;50.872;4.732;2022-07-04T15:26:40;25.60;98.20
9640;DHT22;51745;50.872;4.732;2022-07-04T15:29:29;25.00;97.00
9640;DHT22;51745;50.872;4.732;2022-07-04T15:32:19;25.50;97.50
9640;DHT22;51745;50.872;4.732;2022-07-04T15:35:07;25.90;99.40
9640;DHT22;51745;50.872;4.732;2022-07-04T15:38:01;26.20;95.20
9640;DHT22;51745;50.872;4.732;2022-07-04T15:40:48;27.50;96.30
9640;DHT22;51745;50.872;4.732;2022-07-04T15:43:38;26.10;98.50
9640;DHT22;51745;50.872;4.732;2022-07-04T15:46:25;26.20;96.00
9640;DHT22;51745;50.872;4.732;2022-07-04T15:49:15;25.90;96.90
9640;DHT22;51745;50.872;4.732;2022-07-04T15:52:07;25.30;97.90
9640;DHT22;51745;50.872;4.732;2022-07-04T15:55:00;24.70;97.30
9640;DHT22;51745;50.872;4.732;2022-07-04T15:57:50;24.40;97.40
9640;DHT22;51745;50.872;4.732;2022-07-04T16:00:45;24.40;97.70
9640;DHT22;51745;50.872;4.732;2022-07-04T16:03:34;24.90;98.10
9640;DHT22;51745;50.872;4.732;2022-07-04T16:06:21;25.40;95.90
9640;DHT22;51745;50.872;4.732;2022-07-04T16:09:08;25.90;97.50
9640;DHT22;51745;50.872;4.732;2022-07-04T16:12:02;26.10;96.60
9640;DHT22;51745;50.872;4.732;2022-07-04T16:14:50;26.10;96.90
9640;DHT22;51745;50.872;4.732;2022-07-04T16:17:37;25.80;94.90
9640;DHT22;51745;50.872;4.732;2022-07-04T16:20:26;25.60;96.10
9640;DHT22;51745;50.872;4.732;2022-07-04T16:23:18;25.90;98.70
9640;DHT22;51745;50.872;4.732;2022-07-04T16:26:07;26.10;97.70
9640;DHT22;51745;50.872;4.732;2022-07-04T16:28:56;26.20;99.00
9640;DHT22;51745;50.872;4.732;2022-07-04T16:31:44;26.30;95.60
9640;DHT22;51745;50.872;4.732;2022-07-04T16:34:34;26.60;95.20
9640;DHT22;51745;50.872;4.732;2022-07-04T16:37:22;26.10;95.50
9640;DHT22;51745;50.872;4.732;2022-07-04T16:40:11;26.00;94.70
9640;DHT22;51745;50.872;4.732;2022-07-04T16:43:02;26.20;94.10
9640;DHT22;51745;50.872;4.732;2022-07-04T16:46:00;26.30;93.00
9640;DHT22;51745;50.872;4.732;2022-07-04T16:48:49;25.90;95.00
9640;DHT22;51745;50.872;4.732;2022-07-04T16:51:41;25.90;95.30
9640;DHT22;51745;50.872;4.732;2022-07-04T16:54:34;23.50;94.40
9640;DHT22;51745;50.872;4.732;2022-07-04T16:57:26;24.00;95.80
9640;DHT22;51745;50.872;4.732;2022-07-04T17:00:14;23.80;95.60
9640;DHT22;51745;50.872;4.732;2022-07-04T17:03:04;24.00;97.00
9640;DHT22;51745;50.872;4.732;2022-07-04T17:05:55;24.40;96.00
9640;DHT22;51745;50.872;4.732;2022-07-04T17:08:46;24.90;95.90
9640;DHT22;51745;50.872;4.732;2022-07-04T17:11:41;25.00;94.90
9640;DHT22;51745;50.872;4.732;2022-07-04T17:14:30;24.90;95.00
9640;DHT22;51745;50.872;4.732;2022-07-04T17:17:23;25.20;94.90
9640;DHT22;51745;50.872;4.732;2022-07-04T17:20:29;25.00;95.40
9640;DHT22;51745;50.872;4.732;2022-07-04T17:23:17;24.70;95.80
9640;DHT22;51745;50.872;4.732;2022-07-04T17:26:04;24.40;96.40
9640;DHT22;51745;50.872;4.732;2022-07-04T17:28:52;24.20;98.30
9640;DHT22;51745;50.872;4.732;2022-07-04T17:31:39;24.00;98.70
9640;DHT22;51745;50.872;4.732;2022-07-04T17:34:36;23.60;98.70
9640;DHT22;51745;50.872;4.732;2022-07-04T17:37:39;23.50;98.80
9640;DHT22;51745;50.872;4.732;2022-07-04T17:40:27;23.60;98.50
9640;DHT22;51745;50.872;4.732;2022-07-04T17:43:35;23.70;98.90
9640;DHT22;51745;50.872;4.732;2022-07-04T17:46:23;23.80;98.80
9640;DHT22;51745;50.872;4.732;2022-07-04T17:49:12;22.60;98.60
9640;DHT22;51745;50.872;4.732;2022-07-04T17:52:00;23.60;99.90
9640;DHT22;51745;50.872;4.732;2022-07-04T17:54:49;22.30;99.90
9640;DHT22;51745;50.872;4.732;2022-07-04T17:57:37;23.70;99.90
9640;DHT22;51745;50.872;4.732;2022-07-04T18:00:26;23.90;99.90
9640;DHT22;51745;50.872;4.732;2022-07-04T18:03:14;24.00;99.90
9640;DHT22;51745;50.872;4.732;2022-07-04T18:06:02;24.00;99.90
9640;DHT22;51745;50.872;4.732;2022-07-04T18:08:49;24.00;99.90
9640;DHT22;51745;50.872;4.732;2022-07-04T18:11:40;24.20;99.90
9640;DHT22;51745;50.872;4.732;2022-07-04T18:14:31;24.20;99.90
9640;DHT22;51745;50.872;4.732;2022-07-04T18:17:25;23.40;99.90